Note: Certified Weather is only available to Registered Users.
Weather Page Abbreviations
AirportCeilingVisibilityWind SpeedTempMETAR
KBID
KBID 200956Z AUTO 22012KT 1/2SM -RA FG OVC003 07/07 A3032 RMK AO2 SLP271 P0000 T00720072
KBID
Date/Time UTCCeilVisWindTempDetails
Tue
02/20/2018
06:00Z
Clouds: OVC 1000 - 2000 ft Vis: > 6 mi Wind: 22014kt Temp: 48° --- See METARs/TAF ---
09:00Z
Clouds: OVC 500 - 1000 ft Vis: > 6 mi Wind: 22012kt Temp: 48° --- See METARs/TAF ---
12:00Z
Clouds: OVC 200 - 400 ft Vis: 3 to 5 mi Mist Wind: 23011kt Temp: 47° Prob. Rain: 48%
15:00Z
Clouds: OVC 200 - 400 ft Vis: > 6 mi Wind: 24014kt Temp: 49° Prob. Rain: 48%
18:00Z
Clouds: BKN > 12000 ft Vis: > 6 mi Wind: 24015kt Temp: 53°
21:00Z
Clouds: CLR > 12000 ft Vis: > 6 mi Wind: 24015kt Temp: 53°
Wed
02/21/2018
00:00Z
Clouds: SCT < 200 ft Vis: < 1.5 mi Fog Wind: 23013kt Temp: 52°
03:00Z
Clouds: OVC < 200 ft Vis: < 1.5 mi Fog Wind: 24013kt Temp: 51°
06:00Z
Clouds: SCT < 200 ft Vis: < 1.5 mi Fog Wind: 24013kt Temp: 51°
09:00Z
Clouds: OVC < 200 ft Vis: < 1.5 mi Fog Wind: 24012kt Temp: 51° Prob. Rain: 19%
12:00Z
Clouds: OVC 200 - 400 ft Vis: < 1.5 mi Fog Wind: 23013kt Temp: 51° Prob. Rain: 13%
15:00Z
Clouds: BKN 200 - 400 ft Vis: < 1.5 mi Haze Wind: 23016kt Temp: 53° Prob. Rain: 13%
18:00Z
Clouds: BKN 1000 - 2000 ft Vis: > 6 mi Wind: 24015kt Temp: 55° Prob. Rain: 11%
21:00Z
Clouds: CLR 500 - 1000 ft Vis: > 6 mi Wind: 24016kt Temp: 54°
Thu
02/22/2018
00:00Z
Clouds: OVC < 200 ft Vis: > 6 mi Fog Wind: 23012kt Temp: 52°
03:00Z
Clouds: OVC < 200 ft Vis: 6 mi Fog Wind: 26011kt Temp: 52°
06:00Z
Clouds: OVC 3000 - 6500 ft Vis: > 6 mi Wind: 32009kt Temp: 49° Prob. Rain: 11%
09:00Z
Clouds: OVC 3000 - 6500 ft Vis: > 6 mi Wind: 01008kt Temp: 45° Prob. Rain: 11%
12:00Z
Clouds: OVC 3000 - 6500 ft Vis: > 6 mi Wind: 03009kt Temp: 41°
18:00Z
Clouds: OVC 3000 - 6500 ft Vis: 1/2 - 1 mi Wind: 04010kt Temp: 37° Prob. Rain: 23%
Fri
02/23/2018
00:00Z
Clouds: OVC 1000 - 2000 ft Vis: > 6 mi Wind: 06007kt Temp: 36° Prob. Rain/Snow: 60%
METAR Reports
KBID 200956Z AUTO 22012KT 1/2SM -RA FG OVC003 07/07 A3032 RMK AO2 SLP271 P0000
  T00720072
KBID 200856Z AUTO 22013KT 1/2SM -RA FG OVC003 08/08 A3031 RMK AO2 SLP267 P0000 60000 T00780078 56007
KBID 200756Z AUTO 23012KT 1/2SM -RA FG OVC003 08/08 A3031 RMK AO2 SLP268 P0000 T00830083
KBID 200737Z AUTO 23011KT 1/2SM -RA FG OVC003 08/08 A3031 RMK AO2 P0000
KBID 200727Z AUTO 22012KT 3/4SM -RA BR OVC003 08/08 A3031 RMK AO2 P0000
KBID 200720Z AUTO 22014G18KT 1/2SM -RA FG OVC003 08/08 A3031 RMK AO2 P0000
KBID 200709Z AUTO 23010KT 3/4SM -RA BR OVC003 08/08 A3032 RMK AO2 P0000

Terminal Forecasts
View Plain Text

Forecast For KBID Not Found

Using Forecast For KPVD
KPVD 200912Z 2009/2106 22011KT 3SM BR OVC005
FM201200 22007KT P6SM BKN008
FM201400 23007KT P6SM BKN015
FM201800 23010G19KT P6SM BKN050
FM202000 22009KT P6SM SCT050
FM210400 22007KT 3SM BR BKN008


Recent NOTAMs (new or modified) from the last 12 hours
  No NOTAMs were submitted for KBID in the last 12 hours
NOTAMs
TFR Flight RestrictionsCheck Approach/Airway FDC Notams for: KBID  
(International notams may be incomplete)
BID 02/014 BID RWY 10/28 SAFETY AREA NOT STD SE 1702081504-PERM

Nearby Departure Airport METARs
KGON 200954Z AUTO VRB03KT 1/4SM R05/2000V2200FT FG VV002 08/08 A3029 RMK AO2
  SLP258 T00830078
KPVD 200951Z AUTO 24012KT 10SM OVC007 11/11 A3027 RMK AO2 SLP251 T01110106
KEWB 200953Z AUTO 23008KT 5SM BR OVC002 09/09 A3027 RMK AO2 SLP251 T00940094
KSFZ 200956Z AUTO VRB06G14KT 10SM OVC003 10/09 A3025 RMK AO2 SLP192 T01000094
KMVY 200953Z AUTO 22011G18KT 1/2SM R24/2200FT FG VV002 A3031 RMK AO2 SLPNO $

KGON = GROTON-NEW LONDON GROTON CT
KMVY = MARTHAS VINEYARD VINEYARD HAV MA
KEWB = NEW BEDFORD RGNL NEW BEDFORD MA
KOQU = QUONSET STATE N.KINGSTOWN RI
KSFZ = NORTH CENTRAL STATE PAWTUCKET RI
KPVD = THEODORE FRANCIS GREEN STATE PROVIDENCE RI
GPS NOTAMs
GPS 02/208 ZME NAV (FTPK GPS 18-11H) GPS (INCLUDING WAAS, GBAS, AND
        ADS-B) MAY NOT BE AVBL WI A 263NM RADIUS CENTERED AT 310535N0930350W
        (AEX 250031) FL400-UNL,
        217NM RADIUS AT FL250,
        146NM RADIUS AT 10000FT,
        102NM RADIUS AT 4000FT AGL,
        45NM RADIUS AT 50FT AGL.
        1802201200-1802201500

GPS 02/209 ZTL NAV (FTPK GPS 18-11H) GPS (INCLUDING WAAS, GBAS, AND
        ADS-B) MAY NOT BE AVBL WI A 263NM RADIUS CENTERED AT 310535N0930350W
        (AEX 250031) FL400-UNL,
        217NM RADIUS AT FL250,
        146NM RADIUS AT 10000FT,
        102NM RADIUS AT 4000FT AGL,
        45NM RADIUS AT 50FT AGL.
        1802201200-1802201500

GPS 02/194 ZKC NAV (WSMR GPS 18-02) GPS (INCLUDING WAAS, GBAS, AND
        ADS-B) MAY NOT BE AVBL WI A 421NM RADIUS CENTERED AT
        333647N1063419W (TCS052041) FL400-UNL,
        377NM RADIUS AT FL250,
        299NM RADIUS AT 10000FT,
        285NM RADIUS AT 4000FT AGL,
        254NM RADIUS AT 50FT AGL.
        DLY 0700-1030 1802200700-1802231030

GPS 02/189 ZAB NAV GPS (BLISS GPS 18-02) (INCLUDING WASS, GBAS, AND
        ADS-B) MAY NOT BE AVAILABLE WI A 15NM RADIUS CENTERED AT
        323120N/1053953W (ELP028052) FL400-UNL,
        16NM RADIUS AT FL250,
        16NM RADIUS AT 10000FT,
        16NM RADIUS AT 4000FT AGL,
        22NM RADIUS AT 50FT AGL,
        DLY 1700-2200
        1802191700-1802232200

GPS 02/190 ZAB NAV (WSMR GPS 18-02) GPS (INCLUDING WAAS, GBAS, AND
        ADS-B) MAY NOT BE AVBL WI A 421NM RADIUS CENTERED AT
        333647N1063419W (TCS052041) FL400-UNL,
        377NM RADIUS AT FL250,
        299NM RADIUS AT 10000FT,
        285NM RADIUS AT 4000FT AGL,
        254NM RADIUS AT 50FT AGL.
        DLY 0700-1030 1802200700-1802231030

GPS 02/211 ZFW NAV (FTPK GPS 18-11L) GPS (INCLUDING WAAS, GBAS, AND
        ADS-B) MAY NOT BE AVBL WI A 45NM RADIUS CENTERED AT 310535N0930350W
        (AEX 250031) FL400-UNL,
        46NM RADIUS AT FL250,
        46NM RADIUS AT 10000FT,
        45NM RADIUS AT 4000FT AGL,
        24NM RADIUS AT 50FT AGL.
        1802201500-1802202300

GPS 02/207 ZFW NAV (FTPK GPS 18-11H) GPS (INCLUDING WAAS, GBAS, AND
        ADS-B) MAY NOT BE AVBL WI A 263NM RADIUS CENTERED AT 310535N0930350W
        (AEX 250031) FL400-UNL,
        217NM RADIUS AT FL250,
        146NM RADIUS AT 10000FT,
        102NM RADIUS AT 4000FT AGL,
        45NM RADIUS AT 50FT AGL.
        1802201200-1802201500

GPS 02/193 ZHU NAV (WSMR GPS 18-02) GPS (INCLUDING WAAS, GBAS, AND
        ADS-B) MAY NOT BE AVBL WI A 421NM RADIUS CENTERED AT
        333647N1063419W (TCS052041) FL400-UNL,
        377NM RADIUS AT FL250,
        299NM RADIUS AT 10000FT,
        285NM RADIUS AT 4000FT AGL,
        254NM RADIUS AT 50FT AGL.
        DLY 0700-1030 1802200700-1802231030

GPS 02/212 ZHU NAV (FTPK GPS 18-11L) GPS (INCLUDING WAAS, GBAS, AND
        ADS-B) MAY NOT BE AVBL WI A 45NM RADIUS CENTERED AT 310535N0930350W
        (AEX 250031) FL400-UNL,
        46NM RADIUS AT FL250,
        46NM RADIUS AT 10000FT,
        45NM RADIUS AT 4000FT AGL,
        24NM RADIUS AT 50FT AGL.
        1802201500-1802202300

GPS 02/201 ZLA NAV GPS (YPG GPS 18-13) (INCLUDING WAAS, GBAS, AND
        ADSB) MAY NOT BE A AVBL WI A 263NM RADIUS CENTERED AT 332537N
        1142002W (BLH 104024) FL400-UNL,
        213NM RADIUS AT FL250,
        141NM RADIUS AT 10000FT,
        121NM RADIUS AT 4000FT AGL,
        107NM RADIUS AT 50FT AGL.
        DLY 1830-2230
        1802191830-1802212230

GPS 02/204 ZDV NAV GPS (YPG GPS 18-13) (INCLUDING WAAS, GBAS, AND
        ADSB) MAY NOT BE A AVBL WI A 263NM RADIUS CENTERED AT 332537N
        1142002W (BLH 104024) FL400-UNL,
        213NM RADIUS AT FL250,
        141NM RADIUS AT 10000FT,
        121NM RADIUS AT 4000FT AGL,
        107NM RADIUS AT 50FT AGL.
        DLY 1830-2230
        1802191830-1802212230

GPS 02/196 ZLC NAV (WSMR GPS 18-02) GPS (INCLUDING WAAS, GBAS, AND
        ADS-B) MAY NOT BE AVBL WI A 421NM RADIUS CENTERED AT
        333647N1063419W (TCS052041) FL400-UNL,
        377NM RADIUS AT FL250,
        299NM RADIUS AT 10000FT,
        285NM RADIUS AT 4000FT AGL,
        254NM RADIUS AT 50FT AGL.
        DLY 0700-1030 1802200700-1802231030

GPS 02/039 GPS NAV PRN 18 OUT
        OF SERVICE 1802091616-1805092359